Time;durP1;ratioP1;P1;durP2;ratioP2;P2;SDS_P1;SDS_P2;PMS_P1;PMS_P2;Temp;Humidity;BMP_temperature;BMP_pressure;BME280_temperature;BME280_humidity;BME280_pressure;Samples;Min_cycle;Max_cycle;Signal;HPM_P1;HPM_P2
2023/07/24 00:00:08;;;;;;;;;;;;;;;;;;6173776;23;19954;-88
2023/07/24 00:02:40;;;;;;;;;;;;;;;;;;6176511;23;20045;-88
2023/07/24 00:05:10;;;;;;;;;;;;;;;;;;6175841;23;19919;-88
2023/07/24 00:07:36;;;;;;;;;;;;;;;;;;6207535;23;20081;-88
2023/07/24 00:10:04;;;;;;;;;;;;;;;;;;6188276;23;19942;-88
2023/07/24 00:12:33;;;;;;;;;;;;;;;;;;6196694;23;19970;-88
2023/07/24 00:14:59;;;;;;;;;;;;;;;;;;6183702;23;19926;-88
2023/07/24 00:17:30;;;;;;;;;;;;;;;;;;6179717;23;19947;-88
2023/07/24 00:19:56;;;;;;;;;;;;;;;;;;6178103;23;20429;-88
2023/07/24 00:22:22;;;;;;;;;;;;;;;;;;6174663;23;19931;-88
2023/07/24 00:24:48;;;;;;;;;;;;;;;;;;6202083;23;19919;-88
2023/07/24 00:27:14;;;;;;;;;;;;;;;;;;6197571;23;19926;-88
2023/07/24 00:29:40;;;;;;;;;;;;;;;;;;6176409;23;19919;-88
2023/07/24 00:32:12;;;;;;;;;;;;;;;;;;6199892;23;20629;-88
2023/07/24 00:34:38;;;;;;;;;;;;;;;;;;6199818;23;19931;-88
2023/07/24 00:37:04;;;;;;;;;;;;;;;;;;6197932;23;20009;-88
2023/07/24 00:39:36;;;;;;;;;;;;;;;;;;6199880;23;19934;-88
2023/07/24 00:42:05;;;;;;;;;;;;;;;;;;6174791;23;19919;-88
2023/07/24 00:44:36;;;;;;;;;;;;;;;;;;6178158;23;19923;-88
2023/07/24 00:47:05;;;;;;;;;;;;;;;;;;6175111;23;19919;-88
2023/07/24 00:49:31;;;;;;;;;;;;;;;;;;6175400;23;20240;-87
2023/07/24 00:51:57;;;;;;;;;;;;;;;;;;6177704;23;20309;-88
2023/07/24 00:54:24;;;;;;;;;;;;;;;;;;6197836;23;19966;-88
2023/07/24 00:56:52;;;;;;;;;;;;;;;;;;6203540;23;19929;-88
2023/07/24 00:59:21;;;;;;;;;;;;;;;;;;6173869;23;19920;-88
2023/07/24 01:01:58;;;;;;;;;;;;;;;;;;6174592;23;19922;-88
2023/07/24 01:04:24;;;;;;;;;;;;;;;;;;6197259;23;20379;-88
2023/07/24 01:06:50;;;;;;;;;;;;;;;;;;6175558;23;20380;-88
2023/07/24 01:09:38;;;;;;;;;;;;;;;;;;6175958;23;19975;-89
2023/07/24 01:12:06;;;;;;;;;;;;;;;;;;6199967;23;19954;-88
2023/07/24 01:14:32;;;;;;;;;;;;;;;;;;6177173;23;19920;-88
2023/07/24 01:16:58;;;;;;;;;;;;;;;;;;6177713;23;20383;-88
2023/07/24 01:19:24;;;;;;;;;;;;;;;;;;6176451;23;19924;-88
2023/07/24 01:21:57;;;;;;;;;;;;;;;;;;6175155;23;19923;-88
2023/07/24 01:24:26;;;;;;;;;;;;;;;;;;6172826;23;19927;-88
2023/07/24 01:26:54;;;;;;;;;;;;;;;;;;6199700;23;19965;-88
2023/07/24 01:29:23;;;;;;;;;;;;;;;;;;6198390;23;20378;-88
2023/07/24 01:31:49;;;;;;;;;;;;;;;;;;6175062;23;19920;-88
2023/07/24 01:34:17;;;;;;;;;;;;;;;;;;6172237;23;19955;-88
2023/07/24 01:36:43;;;;;;;;;;;;;;;;;;6173717;23;19930;-88
2023/07/24 01:39:15;;;;;;;;;;;;;;;;;;6173105;23;19990;-88
2023/07/24 01:41:50;;;;;;;;;;;;;;;;;;6200383;23;19926;-88
2023/07/24 01:44:16;;;;;;;;;;;;;;;;;;6200402;23;19928;-88
2023/07/24 01:46:42;;;;;;;;;;;;;;;;;;6179074;23;19998;-88
2023/07/24 01:49:12;;;;;;;;;;;;;;;;;;6201396;22;19943;-88
2023/07/24 01:51:38;;;;;;;;;;;;;;;;;;6201393;23;20217;-88
2023/07/24 01:54:07;;;;;;;;;;;;;;;;;;6174047;23;19923;-88
2023/07/24 01:56:33;;;;;;;;;;;;;;;;;;6175170;23;20017;-87
2023/07/24 01:59:05;;;;;;;;;;;;;;;;;;6173383;23;20360;-87
2023/07/24 02:01:31;;;;;;;;;;;;;;;;;;6174683;23;19920;-88
2023/07/24 02:03:57;;;;;;;;;;;;;;;;;;6201081;23;20331;-88
2023/07/24 02:06:23;;;;;;;;;;;;;;;;;;6175425;23;20325;-88
2023/07/24 02:08:51;;;;;;;;;;;;;;;;;;6177110;23;19919;-88
2023/07/24 02:11:17;;;;;;;;;;;;;;;;;;6201027;23;19925;-88
2023/07/24 02:13:43;;;;;;;;;;;;;;;;;;6179366;23;19919;-88
2023/07/24 02:16:11;;;;;;;;;;;;;;;;;;6178662;23;19924;-88
2023/07/24 02:18:37;;;;;;;;;;;;;;;;;;6203624;23;20334;-88
2023/07/24 02:21:06;;;;;;;;;;;;;;;;;;6174915;23;19994;-87
2023/07/24 02:26:25;;;;;;;;;;;;;;;;;;6201041;23;20005;-87
2023/07/24 02:28:51;;;;;;;;;;;;;;;;;;6177082;23;19920;-88
2023/07/24 02:31:28;;;;;;;;;;;;;;;;;;6177824;23;20401;-88
2023/07/24 02:33:54;;;;;;;;;;;;;;;;;;6178618;23;19915;-88
2023/07/24 02:36:22;;;;;;;;;;;;;;;;;;6175381;23;19923;-88
2023/07/24 02:38:49;;;;;;;;;;;;;;;;;;6176780;23;19994;-88
2023/07/24 02:41:21;;;;;;;;;;;;;;;;;;6176647;23;19919;-89
2023/07/24 02:43:47;;;;;;;;;;;;;;;;;;6176564;23;20244;-88
2023/07/24 02:46:15;;;;;;;;;;;;;;;;;;6200952;23;19920;-88
2023/07/24 02:48:44;;;;;;;;;;;;;;;;;;6178218;23;20026;-88
2023/07/24 02:51:13;;;;;;;;;;;;;;;;;;6175638;23;19950;-88
2023/07/24 02:53:39;;;;;;;;;;;;;;;;;;6178394;23;20287;-88
2023/07/24 02:56:06;;;;;;;;;;;;;;;;;;6174935;23;19920;-88
2023/07/24 02:58:32;;;;;;;;;;;;;;;;;;6201875;23;19969;-89
2023/07/24 03:00:58;;;;;;;;;;;;;;;;;;6200432;23;19920;-88
2023/07/24 03:03:24;;;;;;;;;;;;;;;;;;6173723;23;19927;-88
2023/07/24 03:05:50;;;;;;;;;;;;;;;;;;6176054;23;19927;-88
2023/07/24 03:08:16;;;;;;;;;;;;;;;;;;6174761;23;20237;-88
2023/07/24 03:10:49;;;;;;;;;;;;;;;;;;6202818;23;19934;-88
2023/07/24 03:13:15;;;;;;;;;;;;;;;;;;6173356;23;19923;-88
2023/07/24 03:15:44;;;;;;;;;;;;;;;;;;6177404;23;20010;-88
2023/07/24 03:18:10;;;;;;;;;;;;;;;;;;6174105;23;19947;-88
2023/07/24 03:23:28;;;;;;;;;;;;;;;;;;6194863;23;19981;-88
2023/07/24 03:25:54;;;;;;;;;;;;;;;;;;6174915;23;20339;-88
2023/07/24 03:28:36;;;;;;;;;;;;;;;;;;6205462;23;19949;-87
2023/07/24 03:31:02;;;;;;;;;;;;;;;;;;6172948;23;19919;-88
2023/07/24 03:33:28;;;;;;;;;;;;;;;;;;6172893;23;20337;-88
2023/07/24 03:35:54;;;;;;;;;;;;;;;;;;6171884;23;19923;-88
2023/07/24 03:38:23;;;;;;;;;;;;;;;;;;6172960;23;20342;-90
2023/07/24 03:40:50;;;;;;;;;;;;;;;;;;6174728;23;20295;-89
2023/07/24 03:43:18;;;;;;;;;;;;;;;;;;6198061;23;20251;-88
2023/07/24 03:45:45;;;;;;;;;;;;;;;;;;6201201;23;19958;-88
2023/07/24 03:48:11;;;;;;;;;;;;;;;;;;6199149;23;20301;-87
2023/07/24 03:50:37;;;;;;;;;;;;;;;;;;6203679;23;19954;-88
2023/07/24 03:53:06;;;;;;;;;;;;;;;;;;6175558;23;20434;-88
2023/07/24 03:55:38;;;;;;;;;;;;;;;;;;6177475;23;19927;-88
2023/07/24 03:58:07;;;;;;;;;;;;;;;;;;6174973;23;19923;-87
2023/07/24 04:00:41;;;;;;;;;;;;;;;;;;6201215;23;19927;-88
2023/07/24 04:03:07;;;;;;;;;;;;;;;;;;6172975;23;19927;-87
2023/07/24 04:05:33;;;;;;;;;;;;;;;;;;6176418;23;19985;-87
2023/07/24 04:07:59;;;;;;;;;;;;;;;;;;6178227;23;20356;-87
2023/07/24 04:10:28;;;;;;;;;;;;;;;;;;6174114;23;19980;-88
2023/07/24 04:12:56;;;;;;;;;;;;;;;;;;6175178;23;19923;-88
2023/07/24 04:15:22;;;;;;;;;;;;;;;;;;6173252;23;20233;-88
2023/07/24 04:17:48;;;;;;;;;;;;;;;;;;6176830;23;20341;-88
2023/07/24 04:20:14;;;;;;;;;;;;;;;;;;6174381;23;19927;-88
2023/07/24 04:22:44;;;;;;;;;;;;;;;;;;6177398;23;20290;-88
2023/07/24 04:25:13;;;;;;;;;;;;;;;;;;6200185;23;19931;-87
2023/07/24 04:27:39;;;;;;;;;;;;;;;;;;6179590;23;19926;-88
2023/07/24 04:30:08;;;;;;;;;;;;;;;;;;6174909;23;19919;-88
2023/07/24 04:32:37;;;;;;;;;;;;;;;;;;6178847;23;20319;-88
2023/07/24 04:35:06;;;;;;;;;;;;;;;;;;6176821;23;19923;-88
2023/07/24 04:37:32;;;;;;;;;;;;;;;;;;6178706;23;19978;-88
2023/07/24 04:39:58;;;;;;;;;;;;;;;;;;6178877;23;19924;-88
2023/07/24 04:42:24;;;;;;;;;;;;;;;;;;6175186;23;19927;-88
2023/07/24 04:44:51;;;;;;;;;;;;;;;;;;6201937;23;19925;-88
2023/07/24 04:47:22;;;;;;;;;;;;;;;;;;6200214;23;19999;-88
2023/07/24 04:49:48;;;;;;;;;;;;;;;;;;6177527;23;19927;-88
2023/07/24 04:52:14;;;;;;;;;;;;;;;;;;6197788;23;20470;-88
2023/07/24 04:54:40;;;;;;;;;;;;;;;;;;6205252;23;19954;-88
2023/07/24 04:57:06;;;;;;;;;;;;;;;;;;6175281;23;19927;-87
2023/07/24 04:59:41;;;;;;;;;;;;;;;;;;6175318;23;19915;-88
2023/07/24 05:02:08;;;;;;;;;;;;;;;;;;6170535;23;20548;-87
2023/07/24 05:04:34;;;;;;;;;;;;;;;;;;6176177;23;20286;-87
2023/07/24 05:07:02;;;;;;;;;;;;;;;;;;6178460;23;19946;-88
2023/07/24 05:09:31;;;;;;;;;;;;;;;;;;6178602;23;20045;-88
2023/07/24 05:11:57;;;;;;;;;;;;;;;;;;6174689;23;19919;-88
2023/07/24 05:14:26;;;;;;;;;;;;;;;;;;6173388;23;19939;-87
2023/07/24 05:16:52;;;;;;;;;;;;;;;;;;6202449;23;19998;-87
2023/07/24 05:19:18;;;;;;;;;;;;;;;;;;6174782;23;19970;-88
2023/07/24 05:21:44;;;;;;;;;;;;;;;;;;6174304;23;20382;-87
2023/07/24 05:24:13;;;;;;;;;;;;;;;;;;6173769;23;20341;-87
2023/07/24 05:26:39;;;;;;;;;;;;;;;;;;6178839;23;19923;-88
2023/07/24 05:29:05;;;;;;;;;;;;;;;;;;6174058;23;19998;-88
2023/07/24 05:31:53;;;;;;;;;;;;;;;;;;;;;
2023/07/24 05:34:25;;;;;;;;;;;;;;;;;;6199353;23;19920;-88
2023/07/24 05:36:51;;;;;;;;;;;;;;;;;;6176691;23;19924;-88
2023/07/24 05:39:17;;;;;;;;;;;;;;;;;;6177208;23;19999;-88
2023/07/24 05:41:43;;;;;;;;;;;;;;;;;;6182527;23;19930;-88
2023/07/24 05:44:09;;;;;;;;;;;;;;;;;;6180517;23;19923;-88
2023/07/24 05:46:53;;;;;;;;;;;;;;;;;;6182892;23;19943;-88
2023/07/24 05:49:19;;;;;;;;;;;;;;;;;;6176646;22;19926;-88
2023/07/24 05:52:04;;;;;;;;;;;;;;;;;;;;;
2023/07/24 05:54:49;;;;;;;;;;;;;;;;;;;;;
2023/07/24 05:57:18;;;;;;;;;;;;;;;;;;6209107;23;19920;-87
2023/07/24 05:59:44;;;;;;;;;;;;;;;;;;6183747;23;19916;-88
2023/07/24 06:02:16;;;;;;;;;;;;;;;;;;6179441;23;19971;-88
2023/07/24 06:04:42;;;;;;;;;;;;;;;;;;6211290;23;20037;-90
2023/07/24 06:07:14;;;;;;;;;;;;;;;;;;6182209;23;20030;-88
2023/07/24 06:09:43;;;;;;;;;;;;;;;;;;6184265;23;19926;-88
2023/07/24 06:12:12;;;;;;;;;;;;;;;;;;6202636;23;20254;-89
2023/07/24 06:14:41;;;;;;;;;;;;;;;;;;6181018;23;20365;-89
2023/07/24 06:17:07;;;;;;;;;;;;;;;;;;6202486;23;19981;-89
2023/07/24 06:19:36;;;;;;;;;;;;;;;;;;6179096;23;19920;-89
2023/07/24 06:22:02;;;;;;;;;;;;;;;;;;6200824;23;19926;-89
2023/07/24 06:24:37;;;;;;;;;;;;;;;;;;6180883;23;19924;-89
2023/07/24 06:27:06;;;;;;;;;;;;;;;;;;6179440;23;19977;-88
2023/07/24 06:29:32;;;;;;;;;;;;;;;;;;6207485;23;19982;-89
2023/07/24 06:31:58;;;;;;;;;;;;;;;;;;6180188;23;19920;-90
2023/07/24 06:34:25;;;;;;;;;;;;;;;;;;6177331;23;20281;-89
2023/07/24 06:36:53;;;;;;;;;;;;;;;;;;6179853;23;20256;-89
2023/07/24 06:39:20;;;;;;;;;;;;;;;;;;6176118;23;19927;-89
2023/07/24 06:41:46;;;;;;;;;;;;;;;;;;6181487;23;20402;-89
2023/07/24 06:44:12;;;;;;;;;;;;;;;;;;6176768;23;20337;-89
2023/07/24 06:46:41;;;;;;;;;;;;;;;;;;6180491;23;19920;-89
2023/07/24 06:49:17;;;;;;;;;;;;;;;;;;6205619;22;20312;-89
2023/07/24 06:51:50;;;;;;;;;;;;;;;;;;6181235;23;20015;-89
2023/07/24 06:54:19;;;;;;;;;;;;;;;;;;6201978;23;20252;-90
2023/07/24 06:56:45;;;;;;;;;;;;;;;;;;6180835;23;20351;-88
2023/07/24 06:59:11;;;;;;;;;;;;;;;;;;6178953;23;19919;-89
2023/07/24 07:01:37;;;;;;;;;;;;;;;;;;6203507;23;19923;-89
2023/07/24 07:04:06;;;;;;;;;;;;;;;;;;6202051;23;19930;-89
2023/07/24 07:06:32;;;;;;;;;;;;;;;;;;6175046;23;19920;-89
2023/07/24 07:09:06;;;;;;;;;;;;;;;;;;6174906;23;19922;-89
2023/07/24 07:11:32;;;;;;;;;;;;;;;;;;6175721;23;20300;-90
2023/07/24 07:14:08;;;;;;;;;;;;;;;;;;;;;
2023/07/24 07:16:37;;;;;;;;;;;;;;;;;;6202615;23;20337;-90
2023/07/24 07:19:09;;;;;;;;;;;;;;;;;;6175038;23;20339;-89
2023/07/24 07:21:35;;;;;;;;;;;;;;;;;;6200798;23;20062;-89
2023/07/24 07:26:59;;;;;;;;;;;;;;;;;;6199386;23;19919;-90
2023/07/24 07:29:31;;;;;;;;;;;;;;;;;;6177282;23;19916;-90
2023/07/24 07:32:08;;;;;;;;;;;;;;;;;;6176202;23;19934;-90
2023/07/24 07:34:35;;;;;;;;;;;;;;;;;;6175789;23;19915;-89
2023/07/24 07:37:01;;;;;;;;;;;;;;;;;;6177218;23;19923;-90
2023/07/24 07:39:27;;;;;;;;;;;;;;;;;;6201755;23;19916;-89
2023/07/24 07:41:54;;;;;;;;;;;;;;;;;;6180965;23;20196;-88
2023/07/24 07:44:20;;;;;;;;;;;;;;;;;;6197835;23;19924;-89
2023/07/24 07:46:52;;;;;;;;;;;;;;;;;;6204224;23;20430;-89
2023/07/24 07:49:18;;;;;;;;;;;;;;;;;;6178064;22;19920;-90
2023/07/24 07:51:58;;;;;;;;;;;;;;;;;;6182721;23;20353;-89
2023/07/24 07:54:32;;;;;;;;;;;;;;;;;;6176403;23;20186;-90
2023/07/24 07:57:21;;;;;;;;;;;;;;;;;;6182444;23;19990;-89
2023/07/24 07:59:52;;;;;;;;;;;;;;;;;;6227812;23;19926;-89
2023/07/24 08:02:24;;;;;;;;;;;;;;;;;;6206218;23;20462;-89
2023/07/24 08:05:12;;;;;;;;;;;;;;;;;;6179213;23;19919;-89
2023/07/24 08:07:50;;;;;;;;;;;;;;;;;;6204125;23;20674;-90
2023/07/24 08:10:28;;;;;;;;;;;;;;;;;;6202545;23;19946;-90
2023/07/24 08:12:54;;;;;;;;;;;;;;;;;;6204384;23;19919;-89
2023/07/24 08:15:20;;;;;;;;;;;;;;;;;;6193709;23;19920;-90
2023/07/24 08:17:49;;;;;;;;;;;;;;;;;;6181369;23;20380;-89
2023/07/24 08:23:19;;;;;;;;;;;;;;;;;;6206709;22;19930;-82
2023/07/24 08:35:49;;;;;;;;;;;;;;;;;;;;;
2023/07/24 08:38:55;;;;;;;;;;;;;;;;;;;;;
2023/07/24 08:57:48;;;;;;;;;;;;;;;;;;5779370;24;19970;-82
2023/07/24 16:55:40;;;;;;;;;;;;;;;;;;6223712;22;20335;-87
2023/07/24 16:58:18;;;;;;;;;;;;;;;;;;6107785;23;19931;-87
2023/07/24 17:00:49;;;;;;;;;;;;;;;;;;6111629;23;19924;-87
2023/07/24 17:03:43;;;;;;;;;;;;;;;;;;;;;
2023/07/24 17:06:18;;;;;;;;;;;;;;;;;;6050872;23;20424;-87
2023/07/24 17:08:53;;;;;;;;;;;;;;;;;;6054509;23;19937;-87
2023/07/24 17:11:23;;;;;;;;;;;;;;;;;;6050390;23;19940;-88
2023/07/24 17:13:57;;;;;;;;;;;;;;;;;;6051445;23;19921;-87
2023/07/24 17:16:32;;;;;;;;;;;;;;;;;;6050534;23;19949;-87
2023/07/24 17:19:04;;;;;;;;;;;;;;;;;;6050595;23;20362;-87
2023/07/24 17:21:30;;;;;;;;;;;;;;;;;;6053282;23;19927;-87
2023/07/24 17:23:56;;;;;;;;;;;;;;;;;;6047137;23;20016;-87
2023/07/24 17:26:22;;;;;;;;;;;;;;;;;;6047122;23;20416;-87
2023/07/24 17:28:51;;;;;;;;;;;;;;;;;;6048465;23;19921;-88
2023/07/24 17:31:17;;;;;;;;;;;;;;;;;;6046451;23;19925;-87
2023/07/24 17:33:43;;;;;;;;;;;;;;;;;;6058219;23;19971;-87
2023/07/24 17:36:09;;;;;;;;;;;;;;;;;;6177787;23;19919;-87
2023/07/24 17:38:35;;;;;;;;;;;;;;;;;;6198682;23;19951;-87
2023/07/24 17:41:05;;;;;;;;;;;;;;;;;;6175568;23;20325;-87
2023/07/24 17:43:31;;;;;;;;;;;;;;;;;;6197635;23;19953;-87
2023/07/24 17:45:57;;;;;;;;;;;;;;;;;;6202249;23;19930;-88
2023/07/24 17:48:23;;;;;;;;;;;;;;;;;;6174441;23;19927;-87
2023/07/24 17:50:52;;;;;;;;;;;;;;;;;;6176405;23;19919;-87
2023/07/24 17:53:18;;;;;;;;;;;;;;;;;;6174405;23;20095;-87
2023/07/24 17:55:46;;;;;;;;;;;;;;;;;;6173194;23;19923;-87
2023/07/24 17:58:12;;;;;;;;;;;;;;;;;;6175633;23;19931;-87
2023/07/24 18:00:40;;;;;;;;;;;;;;;;;;6176925;23;19919;-87
2023/07/24 18:03:09;;;;;;;;;;;;;;;;;;6199213;23;19923;-87
2023/07/24 18:05:37;;;;;;;;;;;;;;;;;;6201096;23;20307;-87
2023/07/24 18:08:08;;;;;;;;;;;;;;;;;;6175120;23;19970;-87
2023/07/24 18:10:35;;;;;;;;;;;;;;;;;;6176770;23;19998;-87
2023/07/24 18:13:01;;;;;;;;;;;;;;;;;;6201772;23;19950;-87
2023/07/24 18:15:28;;;;;;;;;;;;;;;;;;6199986;23;19927;-87
2023/07/24 18:17:54;;;;;;;;;;;;;;;;;;6175901;23;19931;-87
2023/07/24 18:20:20;;;;;;;;;;;;;;;;;;6174550;23;19973;-87
2023/07/24 18:22:46;;;;;;;;;;;;;;;;;;6175121;23;20280;-87
2023/07/24 18:25:17;;;;;;;;;;;;;;;;;;6180992;23;23416;-88
2023/07/24 18:27:56;;;;;;;;;;;;;;;;;;;;;
2023/07/24 18:30:28;;;;;;;;;;;;;;;;;;6198166;23;20181;-88
2023/07/24 18:33:12;;;;;;;;;;;;;;;;;;6179586;23;19924;-89
2023/07/24 18:38:48;;;;;;;;;;;;;;;;;;6214257;23;19973;-89
2023/07/24 18:41:26;;;;;;;;;;;;;;;;;;6179069;23;19973;-89
2023/07/24 18:44:10;;;;;;;;;;;;;;;;;;6182499;23;19923;-89
2023/07/24 18:50:00;;;;;;;;;;;;;;;;;;;;;
2023/07/24 18:53:20;;;;;;;;;;;;;;;;;;6137307;23;20353;-89
2023/07/24 18:55:39;;;;;;;;;;;;;;;;;;6130415;23;20459;-88
2023/07/24 18:58:14;;;;;;;;;;;;;;;;;;6107060;23;19955;-89
2023/07/24 19:00:52;;;;;;;;;;;;;;;;;;6109078;23;19979;-89
2023/07/24 19:03:39;;;;;;;;;;;;;;;;;;6106597;23;19928;-88
2023/07/24 19:06:06;;;;;;;;;;;;;;;;;;6106046;23;20003;-88
2023/07/24 19:08:41;;;;;;;;;;;;;;;;;;6109046;23;19920;-89
2023/07/24 19:11:41;;;;;;;;;;;;;;;;;;6121884;23;19921;-89
2023/07/24 19:14:28;;;;;;;;;;;;;;;;;;6106231;23;19920;-88
2023/07/24 19:16:59;;;;;;;;;;;;;;;;;;6108601;23;19991;-90
2023/07/24 19:32:34;;;;;;;;;;;;;;;;;;5989709;23;20336;-92
2023/07/24 19:35:06;;;;;;;;;;;;;;;;;;6009030;23;19929;-90
2023/07/24 19:37:35;;;;;;;;;;;;;;;;;;5991620;23;19972;-91
2023/07/24 21:06:10;;;;;;;;;;;;;;;;;;6234896;22;20337;-84
2023/07/24 21:08:36;;;;;;;;;;;;;;;;;;6171122;23;20264;-83
2023/07/24 21:11:15;;;;;;;;;;;;;;;;;;;;;
2023/07/24 21:14:09;;;;;;;;;;;;;;;;;;6228519;23;19925;-83
2023/07/24 21:16:38;;;;;;;;;;;;;;;;;;6200604;23;19973;-83
2023/07/24 21:19:10;;;;;;;;;;;;;;;;;;6226544;23;19942;-83
2023/07/24 21:24:34;;;;;;;;;;;;;;;;;;6169931;23;19927;-83
2023/07/24 21:27:06;;;;;;;;;;;;;;;;;;6197425;22;19981;-83
2023/07/24 21:29:38;;;;;;;;;;;;;;;;;;6172182;23;20167;-84
2023/07/24 21:35:13;;;;;;;;;;;;;;;;;;6177088;23;19923;-83
2023/07/24 21:37:45;;;;;;;;;;;;;;;;;;6173013;23;20412;-83
2023/07/24 21:40:20;;;;;;;;;;;;;;;;;;6164442;23;19927;-83
2023/07/24 21:43:04;;;;;;;;;;;;;;;;;;6177474;23;19919;-83
2023/07/24 21:45:33;;;;;;;;;;;;;;;;;;6177161;23;19920;-83
2023/07/24 21:48:06;;;;;;;;;;;;;;;;;;6174118;23;20356;-83
2023/07/24 21:50:32;;;;;;;;;;;;;;;;;;6201634;23;20347;-83
2023/07/24 21:53:01;;;;;;;;;;;;;;;;;;6203668;23;19926;-83
2023/07/24 21:55:44;;;;;;;;;;;;;;;;;;6174158;23;19920;-83
2023/07/24 21:58:13;;;;;;;;;;;;;;;;;;6196970;23;20073;-83
2023/07/24 22:00:45;;;;;;;;;;;;;;;;;;6174487;23;20434;-84
2023/07/24 22:03:20;;;;;;;;;;;;;;;;;;6172977;23;19938;-83
2023/07/24 22:05:48;;;;;;;;;;;;;;;;;;6173291;23;19923;-83
2023/07/24 22:08:39;;;;;;;;;;;;;;;;;;6210852;23;19995;-83
2023/07/24 22:11:11;;;;;;;;;;;;;;;;;;6199326;23;20360;-83
2023/07/24 22:13:43;;;;;;;;;;;;;;;;;;6179067;23;20230;-83
2023/07/24 22:16:22;;;;;;;;;;;;;;;;;;6237339;23;20565;-84
2023/07/24 22:18:57;;;;;;;;;;;;;;;;;;6178431;23;19970;-83
2023/07/24 22:21:36;;;;;;;;;;;;;;;;;;6178682;23;19927;-83
2023/07/24 22:24:08;;;;;;;;;;;;;;;;;;6200528;23;19924;-83
2023/07/24 22:26:49;;;;;;;;;;;;;;;;;;6202536;23;19920;-83
2023/07/24 22:29:18;;;;;;;;;;;;;;;;;;6173344;23;20300;-83
2023/07/24 22:31:50;;;;;;;;;;;;;;;;;;6204591;23;19972;-83
2023/07/24 22:34:18;;;;;;;;;;;;;;;;;;6203138;23;19965;-83
2023/07/24 22:36:44;;;;;;;;;;;;;;;;;;6141609;23;20007;-83
2023/07/24 22:39:25;;;;;;;;;;;;;;;;;;6138201;23;20350;-83
2023/07/24 22:42:01;;;;;;;;;;;;;;;;;;6115447;23;19952;-83
2023/07/24 22:44:30;;;;;;;;;;;;;;;;;;6117825;23;19931;-83
2023/07/24 22:47:06;;;;;;;;;;;;;;;;;;6139813;23;20368;-83
2023/07/24 22:49:35;;;;;;;;;;;;;;;;;;6141640;23;19931;-83
2023/07/24 22:52:07;;;;;;;;;;;;;;;;;;6137852;23;20097;-83
2023/07/24 22:54:51;;;;;;;;;;;;;;;;;;6165467;23;19916;-83
2023/07/24 22:57:17;;;;;;;;;;;;;;;;;;6131123;23;19962;-83
2023/07/24 22:59:49;;;;;;;;;;;;;;;;;;6114721;23;19967;-83
2023/07/24 23:02:18;;;;;;;;;;;;;;;;;;6192999;23;19923;-83
2023/07/24 23:04:44;;;;;;;;;;;;;;;;;;6201929;23;19973;-83
2023/07/24 23:07:18;;;;;;;;;;;;;;;;;;6176837;23;20240;-83
2023/07/24 23:09:50;;;;;;;;;;;;;;;;;;6225291;23;20119;-83
2023/07/24 23:12:16;;;;;;;;;;;;;;;;;;6198128;23;19969;-83
2023/07/24 23:14:47;;;;;;;;;;;;;;;;;;6228279;23;19994;-83
2023/07/24 23:17:16;;;;;;;;;;;;;;;;;;6202811;23;20330;-83
2023/07/24 23:19:45;;;;;;;;;;;;;;;;;;6231297;23;20405;-83
2023/07/24 23:22:14;;;;;;;;;;;;;;;;;;6173669;23;19973;-83
2023/07/24 23:24:40;;;;;;;;;;;;;;;;;;6200639;23;20673;-82
2023/07/24 23:27:06;;;;;;;;;;;;;;;;;;6224523;22;19920;-83
2023/07/24 23:29:32;;;;;;;;;;;;;;;;;;6197809;23;19930;-83
2023/07/24 23:31:58;;;;;;;;;;;;;;;;;;6198092;23;19920;-83
2023/07/24 23:34:26;;;;;;;;;;;;;;;;;;6223929;23;19962;-83
2023/07/24 23:36:52;;;;;;;;;;;;;;;;;;6196820;23;20359;-83
2023/07/24 23:39:19;;;;;;;;;;;;;;;;;;6195230;23;19919;-83
2023/07/24 23:41:45;;;;;;;;;;;;;;;;;;6200185;23;20355;-83
2023/07/24 23:44:11;;;;;;;;;;;;;;;;;;6172085;23;19923;-83
2023/07/24 23:46:38;;;;;;;;;;;;;;;;;;6199762;23;19922;-83
2023/07/24 23:49:04;;;;;;;;;;;;;;;;;;6173038;23;20333;-83
2023/07/24 23:51:30;;;;;;;;;;;;;;;;;;6173476;23;19926;-83
2023/07/24 23:53:56;;;;;;;;;;;;;;;;;;6202801;23;19919;-83
2023/07/24 23:56:22;;;;;;;;;;;;;;;;;;6174404;23;20330;-83
2023/07/24 23:58:48;;;;;;;;;;;;;;;;;;6228808;23;19919;-83
